sensor_id;sensor_type;location;lat;lon;timestamp;P1;durP1;ratioP1;P2;durP2;ratioP2
6997;SDS011;3539;47.982;12.238;2023-05-07T00:00:40;4.20;;;3.80;;
6997;SDS011;3539;47.982;12.238;2023-05-07T00:03:07;5.23;;;3.43;;
6997;SDS011;3539;47.982;12.238;2023-05-07T00:05:34;6.50;;;3.70;;
6997;SDS011;3539;47.982;12.238;2023-05-07T00:08:03;4.50;;;3.70;;
6997;SDS011;3539;47.982;12.238;2023-05-07T00:10:31;4.37;;;3.80;;
6997;SDS011;3539;47.982;12.238;2023-05-07T00:12:58;4.30;;;3.67;;
6997;SDS011;3539;47.982;12.238;2023-05-07T00:15:25;4.10;;;3.37;;
6997;SDS011;3539;47.982;12.238;2023-05-07T00:17:52;3.87;;;3.57;;
6997;SDS011;3539;47.982;12.238;2023-05-07T00:20:19;3.40;;;3.10;;
6997;SDS011;3539;47.982;12.238;2023-05-07T00:22:46;5.00;;;3.60;;
6997;SDS011;3539;47.982;12.238;2023-05-07T00:25:13;3.53;;;3.23;;
6997;SDS011;3539;47.982;12.238;2023-05-07T00:27:41;3.87;;;3.43;;
6997;SDS011;3539;47.982;12.238;2023-05-07T00:30:09;3.97;;;3.60;;
6997;SDS011;3539;47.982;12.238;2023-05-07T00:32:36;3.47;;;3.10;;
6997;SDS011;3539;47.982;12.238;2023-05-07T00:35:04;3.97;;;3.20;;
6997;SDS011;3539;47.982;12.238;2023-05-07T00:37:31;3.60;;;3.10;;
6997;SDS011;3539;47.982;12.238;2023-05-07T00:39:58;4.43;;;3.20;;
6997;SDS011;3539;47.982;12.238;2023-05-07T00:42:25;3.80;;;3.33;;
6997;SDS011;3539;47.982;12.238;2023-05-07T00:44:54;4.43;;;4.03;;
6997;SDS011;3539;47.982;12.238;2023-05-07T00:47:21;4.07;;;3.30;;
6997;SDS011;3539;47.982;12.238;2023-05-07T00:49:49;4.10;;;3.70;;
6997;SDS011;3539;47.982;12.238;2023-05-07T00:52:16;6.00;;;5.10;;
6997;SDS011;3539;47.982;12.238;2023-05-07T00:54:43;12.30;;;4.67;;
6997;SDS011;3539;47.982;12.238;2023-05-07T00:57:10;4.83;;;4.43;;
6997;SDS011;3539;47.982;12.238;2023-05-07T00:59:37;4.13;;;3.47;;
6997;SDS011;3539;47.982;12.238;2023-05-07T01:02:06;4.00;;;3.70;;
6997;SDS011;3539;47.982;12.238;2023-05-07T01:04:33;3.80;;;3.50;;
6997;SDS011;3539;47.982;12.238;2023-05-07T01:07:00;5.40;;;3.63;;
6997;SDS011;3539;47.982;12.238;2023-05-07T01:09:28;4.10;;;3.70;;
6997;SDS011;3539;47.982;12.238;2023-05-07T01:11:55;4.20;;;3.80;;
6997;SDS011;3539;47.982;12.238;2023-05-07T01:14:23;4.07;;;3.43;;
6997;SDS011;3539;47.982;12.238;2023-05-07T01:16:50;6.33;;;3.57;;
6997;SDS011;3539;47.982;12.238;2023-05-07T01:19:19;5.67;;;3.07;;
6997;SDS011;3539;47.982;12.238;2023-05-07T01:21:47;4.70;;;3.93;;
6997;SDS011;3539;47.982;12.238;2023-05-07T01:24:16;5.13;;;3.80;;
6997;SDS011;3539;47.982;12.238;2023-05-07T01:26:44;4.10;;;3.70;;
6997;SDS011;3539;47.982;12.238;2023-05-07T01:29:10;4.07;;;3.77;;
6997;SDS011;3539;47.982;12.238;2023-05-07T01:31:37;5.00;;;3.70;;
6997;SDS011;3539;47.982;12.238;2023-05-07T01:34:05;5.00;;;4.17;;
6997;SDS011;3539;47.982;12.238;2023-05-07T01:36:33;4.90;;;3.63;;
6997;SDS011;3539;47.982;12.238;2023-05-07T01:39:00;4.13;;;3.73;;
6997;SDS011;3539;47.982;12.238;2023-05-07T01:41:29;3.57;;;3.27;;
6997;SDS011;3539;47.982;12.238;2023-05-07T01:43:56;3.93;;;3.50;;
6997;SDS011;3539;47.982;12.238;2023-05-07T01:46:24;3.70;;;3.40;;
6997;SDS011;3539;47.982;12.238;2023-05-07T01:48:52;4.00;;;3.60;;
6997;SDS011;3539;47.982;12.238;2023-05-07T01:51:19;4.30;;;3.87;;
6997;SDS011;3539;47.982;12.238;2023-05-07T01:53:47;5.83;;;4.10;;
6997;SDS011;3539;47.982;12.238;2023-05-07T01:56:15;4.97;;;4.53;;
6997;SDS011;3539;47.982;12.238;2023-05-07T01:58:44;5.50;;;4.43;;
6997;SDS011;3539;47.982;12.238;2023-05-07T02:01:11;5.00;;;4.50;;
6997;SDS011;3539;47.982;12.238;2023-05-07T02:03:38;5.07;;;4.13;;
6997;SDS011;3539;47.982;12.238;2023-05-07T02:06:05;5.13;;;3.80;;
6997;SDS011;3539;47.982;12.238;2023-05-07T02:08:32;3.90;;;3.60;;
6997;SDS011;3539;47.982;12.238;2023-05-07T02:10:59;6.20;;;4.20;;
6997;SDS011;3539;47.982;12.238;2023-05-07T02:13:26;4.30;;;3.90;;
6997;SDS011;3539;47.982;12.238;2023-05-07T02:15:56;4.50;;;3.93;;
6997;SDS011;3539;47.982;12.238;2023-05-07T02:18:23;5.27;;;3.70;;
6997;SDS011;3539;47.982;12.238;2023-05-07T02:20:50;3.83;;;3.40;;
6997;SDS011;3539;47.982;12.238;2023-05-07T02:23:17;5.87;;;3.57;;
6997;SDS011;3539;47.982;12.238;2023-05-07T02:25:43;4.40;;;3.50;;
6997;SDS011;3539;47.982;12.238;2023-05-07T02:28:11;4.73;;;3.70;;
6997;SDS011;3539;47.982;12.238;2023-05-07T02:30:37;3.97;;;3.60;;
6997;SDS011;3539;47.982;12.238;2023-05-07T02:33:06;3.70;;;3.40;;
6997;SDS011;3539;47.982;12.238;2023-05-07T02:35:33;6.10;;;3.80;;
6997;SDS011;3539;47.982;12.238;2023-05-07T02:38:00;3.80;;;3.40;;
6997;SDS011;3539;47.982;12.238;2023-05-07T02:40:27;4.20;;;3.83;;
6997;SDS011;3539;47.982;12.238;2023-05-07T02:42:53;4.27;;;3.87;;
6997;SDS011;3539;47.982;12.238;2023-05-07T02:45:20;4.23;;;3.83;;
6997;SDS011;3539;47.982;12.238;2023-05-07T02:47:47;4.13;;;3.83;;
6997;SDS011;3539;47.982;12.238;2023-05-07T02:50:16;4.03;;;3.73;;
6997;SDS011;3539;47.982;12.238;2023-05-07T02:52:43;4.00;;;3.60;;
6997;SDS011;3539;47.982;12.238;2023-05-07T02:55:09;4.20;;;3.80;;
6997;SDS011;3539;47.982;12.238;2023-05-07T02:57:36;4.43;;;3.70;;
6997;SDS011;3539;47.982;12.238;2023-05-07T03:00:13;3.90;;;3.60;;
6997;SDS011;3539;47.982;12.238;2023-05-07T03:02:41;5.90;;;3.80;;
6997;SDS011;3539;47.982;12.238;2023-05-07T03:05:09;4.23;;;3.83;;
6997;SDS011;3539;47.982;12.238;2023-05-07T03:07:38;6.13;;;3.80;;
6997;SDS011;3539;47.982;12.238;2023-05-07T03:10:06;4.40;;;3.50;;
6997;SDS011;3539;47.982;12.238;2023-05-07T03:12:33;4.33;;;3.37;;
6997;SDS011;3539;47.982;12.238;2023-05-07T03:14:59;3.93;;;3.50;;
6997;SDS011;3539;47.982;12.238;2023-05-07T03:17:26;4.00;;;3.60;;
6997;SDS011;3539;47.982;12.238;2023-05-07T03:19:53;4.17;;;3.17;;
6997;SDS011;3539;47.982;12.238;2023-05-07T03:22:20;3.80;;;3.47;;
6997;SDS011;3539;47.982;12.238;2023-05-07T03:24:48;4.47;;;3.80;;
6997;SDS011;3539;47.982;12.238;2023-05-07T03:27:14;3.33;;;3.03;;
6997;SDS011;3539;47.982;12.238;2023-05-07T03:29:43;4.77;;;3.80;;
6997;SDS011;3539;47.982;12.238;2023-05-07T03:32:09;5.57;;;3.50;;
6997;SDS011;3539;47.982;12.238;2023-05-07T03:34:36;4.33;;;3.73;;
6997;SDS011;3539;47.982;12.238;2023-05-07T03:37:03;5.10;;;3.80;;
6997;SDS011;3539;47.982;12.238;2023-05-07T03:39:29;3.40;;;3.10;;
6997;SDS011;3539;47.982;12.238;2023-05-07T03:41:58;5.50;;;3.90;;
6997;SDS011;3539;47.982;12.238;2023-05-07T03:44:25;5.07;;;4.57;;
6997;SDS011;3539;47.982;12.238;2023-05-07T03:46:52;5.70;;;4.20;;
6997;SDS011;3539;47.982;12.238;2023-05-07T03:49:19;5.83;;;4.63;;
6997;SDS011;3539;47.982;12.238;2023-05-07T03:51:46;5.83;;;4.80;;
6997;SDS011;3539;47.982;12.238;2023-05-07T03:54:12;6.40;;;4.80;;
6997;SDS011;3539;47.982;12.238;2023-05-07T03:56:39;6.37;;;5.00;;
6997;SDS011;3539;47.982;12.238;2023-05-07T03:59:07;4.97;;;4.47;;
6997;SDS011;3539;47.982;12.238;2023-05-07T04:01:34;7.60;;;5.67;;
6997;SDS011;3539;47.982;12.238;2023-05-07T04:04:01;5.67;;;4.60;;
6997;SDS011;3539;47.982;12.238;2023-05-07T04:06:28;4.97;;;4.17;;
6997;SDS011;3539;47.982;12.238;2023-05-07T04:08:54;4.60;;;4.20;;
6997;SDS011;3539;47.982;12.238;2023-05-07T04:11:21;4.30;;;3.90;;
6997;SDS011;3539;47.982;12.238;2023-05-07T04:13:48;3.63;;;3.33;;
6997;SDS011;3539;47.982;12.238;2023-05-07T04:16:16;4.10;;;3.70;;
6997;SDS011;3539;47.982;12.238;2023-05-07T04:18:43;3.87;;;3.50;;
6997;SDS011;3539;47.982;12.238;2023-05-07T04:21:13;3.53;;;3.20;;
6997;SDS011;3539;47.982;12.238;2023-05-07T04:23:40;5.20;;;3.50;;
6997;SDS011;3539;47.982;12.238;2023-05-07T04:26:07;4.07;;;3.20;;
6997;SDS011;3539;47.982;12.238;2023-05-07T04:28:34;5.20;;;3.20;;
6997;SDS011;3539;47.982;12.238;2023-05-07T04:31:02;3.63;;;3.33;;
6997;SDS011;3539;47.982;12.238;2023-05-07T04:33:30;4.57;;;3.30;;
6997;SDS011;3539;47.982;12.238;2023-05-07T04:35:56;3.83;;;3.20;;
6997;SDS011;3539;47.982;12.238;2023-05-07T04:38:27;3.07;;;2.80;;
6997;SDS011;3539;47.982;12.238;2023-05-07T04:40:54;4.40;;;3.20;;
6997;SDS011;3539;47.982;12.238;2023-05-07T04:43:21;3.77;;;2.90;;
6997;SDS011;3539;47.982;12.238;2023-05-07T04:45:47;4.03;;;3.40;;
6997;SDS011;3539;47.982;12.238;2023-05-07T04:48:16;3.90;;;3.50;;
6997;SDS011;3539;47.982;12.238;2023-05-07T04:50:45;3.83;;;3.53;;
6997;SDS011;3539;47.982;12.238;2023-05-07T04:53:15;5.07;;;3.50;;
6997;SDS011;3539;47.982;12.238;2023-05-07T04:55:42;3.73;;;3.43;;
6997;SDS011;3539;47.982;12.238;2023-05-07T04:58:08;3.83;;;3.53;;
6997;SDS011;3539;47.982;12.238;2023-05-07T05:00:37;4.67;;;3.73;;
6997;SDS011;3539;47.982;12.238;2023-05-07T05:03:04;4.40;;;3.67;;
6997;SDS011;3539;47.982;12.238;2023-05-07T05:05:31;4.23;;;3.87;;
6997;SDS011;3539;47.982;12.238;2023-05-07T05:07:59;4.30;;;3.90;;
6997;SDS011;3539;47.982;12.238;2023-05-07T05:10:26;4.00;;;3.60;;
6997;SDS011;3539;47.982;12.238;2023-05-07T05:12:53;4.60;;;4.20;;
6997;SDS011;3539;47.982;12.238;2023-05-07T05:15:19;5.00;;;4.30;;
6997;SDS011;3539;47.982;12.238;2023-05-07T05:17:46;4.63;;;4.23;;
6997;SDS011;3539;47.982;12.238;2023-05-07T05:20:13;5.40;;;4.83;;
6997;SDS011;3539;47.982;12.238;2023-05-07T05:22:41;5.43;;;4.93;;
6997;SDS011;3539;47.982;12.238;2023-05-07T05:25:09;4.77;;;4.10;;
6997;SDS011;3539;47.982;12.238;2023-05-07T05:27:36;5.13;;;4.63;;
6997;SDS011;3539;47.982;12.238;2023-05-07T05:30:03;4.47;;;3.83;;
6997;SDS011;3539;47.982;12.238;2023-05-07T05:32:31;4.47;;;4.07;;
6997;SDS011;3539;47.982;12.238;2023-05-07T05:34:57;5.03;;;4.60;;
6997;SDS011;3539;47.982;12.238;2023-05-07T05:37:25;5.37;;;4.73;;
6997;SDS011;3539;47.982;12.238;2023-05-07T05:39:51;4.90;;;4.43;;
6997;SDS011;3539;47.982;12.238;2023-05-07T05:42:21;5.10;;;4.20;;
6997;SDS011;3539;47.982;12.238;2023-05-07T05:44:47;5.00;;;4.50;;
6997;SDS011;3539;47.982;12.238;2023-05-07T05:47:14;5.67;;;4.77;;
6997;SDS011;3539;47.982;12.238;2023-05-07T05:49:41;6.87;;;5.17;;
6997;SDS011;3539;47.982;12.238;2023-05-07T05:52:08;6.07;;;5.57;;
6997;SDS011;3539;47.982;12.238;2023-05-07T05:54:35;6.20;;;5.60;;
6997;SDS011;3539;47.982;12.238;2023-05-07T05:57:02;6.10;;;5.17;;
6997;SDS011;3539;47.982;12.238;2023-05-07T05:59:30;5.90;;;5.30;;
6997;SDS011;3539;47.982;12.238;2023-05-07T06:01:57;7.23;;;5.30;;
6997;SDS011;3539;47.982;12.238;2023-05-07T06:04:24;6.67;;;6.03;;
6997;SDS011;3539;47.982;12.238;2023-05-07T06:06:50;6.90;;;6.20;;
6997;SDS011;3539;47.982;12.238;2023-05-07T06:09:17;6.73;;;6.13;;
6997;SDS011;3539;47.982;12.238;2023-05-07T06:11:44;6.73;;;6.07;;
6997;SDS011;3539;47.982;12.238;2023-05-07T06:14:10;6.80;;;6.10;;
6997;SDS011;3539;47.982;12.238;2023-05-07T06:16:39;7.13;;;5.77;;
6997;SDS011;3539;47.982;12.238;2023-05-07T06:19:05;6.10;;;5.50;;
6997;SDS011;3539;47.982;12.238;2023-05-07T06:21:32;6.10;;;5.50;;
6997;SDS011;3539;47.982;12.238;2023-05-07T06:23:59;6.17;;;5.57;;
6997;SDS011;3539;47.982;12.238;2023-05-07T06:26:26;6.53;;;5.90;;
6997;SDS011;3539;47.982;12.238;2023-05-07T06:28:53;6.13;;;5.57;;
6997;SDS011;3539;47.982;12.238;2023-05-07T06:31:19;6.50;;;5.90;;
6997;SDS011;3539;47.982;12.238;2023-05-07T06:33:48;7.10;;;5.77;;
6997;SDS011;3539;47.982;12.238;2023-05-07T06:36:15;8.47;;;5.43;;
6997;SDS011;3539;47.982;12.238;2023-05-07T06:38:41;6.30;;;5.70;;
6997;SDS011;3539;47.982;12.238;2023-05-07T06:41:08;5.17;;;4.67;;
6997;SDS011;3539;47.982;12.238;2023-05-07T06:43:35;5.00;;;4.50;;
6997;SDS011;3539;47.982;12.238;2023-05-07T06:46:02;5.10;;;4.60;;
6997;SDS011;3539;47.982;12.238;2023-05-07T06:48:29;4.73;;;4.13;;
6997;SDS011;3539;47.982;12.238;2023-05-07T06:50:57;4.83;;;4.40;;
6997;SDS011;3539;47.982;12.238;2023-05-07T06:53:23;5.00;;;4.57;;
6997;SDS011;3539;47.982;12.238;2023-05-07T06:55:50;4.40;;;4.00;;
6997;SDS011;3539;47.982;12.238;2023-05-07T06:58:17;5.00;;;4.53;;
6997;SDS011;3539;47.982;12.238;2023-05-07T07:00:44;4.53;;;4.13;;
6997;SDS011;3539;47.982;12.238;2023-05-07T07:03:11;4.43;;;3.97;;
6997;SDS011;3539;47.982;12.238;2023-05-07T07:05:38;4.47;;;3.87;;
6997;SDS011;3539;47.982;12.238;2023-05-07T07:08:07;3.90;;;3.50;;
6997;SDS011;3539;47.982;12.238;2023-05-07T07:10:34;4.50;;;3.53;;
6997;SDS011;3539;47.982;12.238;2023-05-07T07:13:01;4.30;;;3.50;;
6997;SDS011;3539;47.982;12.238;2023-05-07T07:15:27;3.77;;;3.20;;
6997;SDS011;3539;47.982;12.238;2023-05-07T07:17:54;3.97;;;3.27;;
6997;SDS011;3539;47.982;12.238;2023-05-07T07:20:21;3.70;;;3.40;;
6997;SDS011;3539;47.982;12.238;2023-05-07T07:22:48;3.60;;;3.30;;
6997;SDS011;3539;47.982;12.238;2023-05-07T07:25:16;3.77;;;3.40;;
6997;SDS011;3539;47.982;12.238;2023-05-07T07:27:43;3.53;;;3.23;;
6997;SDS011;3539;47.982;12.238;2023-05-07T07:30:10;4.33;;;3.10;;
6997;SDS011;3539;47.982;12.238;2023-05-07T07:32:37;3.50;;;3.07;;
6997;SDS011;3539;47.982;12.238;2023-05-07T07:35:04;3.30;;;3.00;;
6997;SDS011;3539;47.982;12.238;2023-05-07T07:37:31;3.43;;;2.80;;
6997;SDS011;3539;47.982;12.238;2023-05-07T07:39:58;4.03;;;3.07;;
6997;SDS011;3539;47.982;12.238;2023-05-07T07:42:27;4.83;;;3.10;;
6997;SDS011;3539;47.982;12.238;2023-05-07T07:44:54;3.70;;;2.83;;
6997;SDS011;3539;47.982;12.238;2023-05-07T07:47:22;3.40;;;3.10;;
6997;SDS011;3539;47.982;12.238;2023-05-07T07:49:48;3.53;;;2.80;;
6997;SDS011;3539;47.982;12.238;2023-05-07T07:52:15;3.33;;;3.03;;
6997;SDS011;3539;47.982;12.238;2023-05-07T07:54:42;2.83;;;2.60;;
6997;SDS011;3539;47.982;12.238;2023-05-07T07:57:09;3.53;;;3.10;;
6997;SDS011;3539;47.982;12.238;2023-05-07T07:59:37;4.23;;;2.90;;
6997;SDS011;3539;47.982;12.238;2023-05-07T08:02:04;2.97;;;2.77;;
6997;SDS011;3539;47.982;12.238;2023-05-07T08:04:32;3.97;;;3.30;;
6997;SDS011;3539;47.982;12.238;2023-05-07T08:06:58;3.43;;;2.87;;
6997;SDS011;3539;47.982;12.238;2023-05-07T08:09:25;3.60;;;3.00;;
6997;SDS011;3539;47.982;12.238;2023-05-07T08:11:52;2.93;;;2.70;;
6997;SDS011;3539;47.982;12.238;2023-05-07T08:14:19;2.90;;;2.70;;
6997;SDS011;3539;47.982;12.238;2023-05-07T08:16:47;3.80;;;2.90;;
6997;SDS011;3539;47.982;12.238;2023-05-07T08:19:14;3.17;;;2.50;;
6997;SDS011;3539;47.982;12.238;2023-05-07T08:21:41;3.53;;;2.77;;
6997;SDS011;3539;47.982;12.238;2023-05-07T08:24:08;3.50;;;2.80;;
6997;SDS011;3539;47.982;12.238;2023-05-07T08:26:35;2.60;;;2.40;;
6997;SDS011;3539;47.982;12.238;2023-05-07T08:29:04;3.27;;;2.27;;
6997;SDS011;3539;47.982;12.238;2023-05-07T08:31:31;2.97;;;2.53;;
6997;SDS011;3539;47.982;12.238;2023-05-07T08:33:59;3.97;;;2.60;;
6997;SDS011;3539;47.982;12.238;2023-05-07T08:36:25;3.23;;;2.47;;
6997;SDS011;3539;47.982;12.238;2023-05-07T08:38:53;3.43;;;2.80;;
6997;SDS011;3539;47.982;12.238;2023-05-07T08:41:20;3.73;;;2.63;;
6997;SDS011;3539;47.982;12.238;2023-05-07T08:43:47;2.40;;;2.20;;
6997;SDS011;3539;47.982;12.238;2023-05-07T08:46:16;2.80;;;2.50;;
6997;SDS011;3539;47.982;12.238;2023-05-07T08:48:44;3.00;;;2.40;;
6997;SDS011;3539;47.982;12.238;2023-05-07T08:51:14;2.53;;;2.30;;
6997;SDS011;3539;47.982;12.238;2023-05-07T08:53:42;3.33;;;2.37;;
6997;SDS011;3539;47.982;12.238;2023-05-07T08:56:09;3.30;;;2.30;;
6997;SDS011;3539;47.982;12.238;2023-05-07T08:58:36;3.73;;;2.50;;
6997;SDS011;3539;47.982;12.238;2023-05-07T09:01:03;2.47;;;2.27;;
6997;SDS011;3539;47.982;12.238;2023-05-07T09:03:33;3.20;;;2.03;;
6997;SDS011;3539;47.982;12.238;2023-05-07T09:06:00;3.33;;;2.43;;
6997;SDS011;3539;47.982;12.238;2023-05-07T09:08:28;2.50;;;2.30;;
6997;SDS011;3539;47.982;12.238;2023-05-07T09:10:55;2.30;;;2.10;;
6997;SDS011;3539;47.982;12.238;2023-05-07T09:13:22;2.67;;;2.20;;
6997;SDS011;3539;47.982;12.238;2023-05-07T09:15:48;3.93;;;2.47;;
6997;SDS011;3539;47.982;12.238;2023-05-07T09:18:15;2.20;;;2.00;;
6997;SDS011;3539;47.982;12.238;2023-05-07T09:20:42;2.93;;;2.13;;
6997;SDS011;3539;47.982;12.238;2023-05-07T09:23:09;2.87;;;2.13;;
6997;SDS011;3539;47.982;12.238;2023-05-07T09:25:37;2.93;;;2.03;;
6997;SDS011;3539;47.982;12.238;2023-05-07T09:28:04;2.37;;;2.00;;
6997;SDS011;3539;47.982;12.238;2023-05-07T09:30:32;2.73;;;2.00;;
6997;SDS011;3539;47.982;12.238;2023-05-07T09:33:00;2.53;;;2.10;;
6997;SDS011;3539;47.982;12.238;2023-05-07T09:35:28;3.03;;;2.17;;
6997;SDS011;3539;47.982;12.238;2023-05-07T09:37:56;2.17;;;1.83;;
6997;SDS011;3539;47.982;12.238;2023-05-07T09:40:24;2.00;;;1.77;;
6997;SDS011;3539;47.982;12.238;2023-05-07T09:42:53;5.40;;;2.10;;
6997;SDS011;3539;47.982;12.238;2023-05-07T09:45:21;3.57;;;1.97;;
6997;SDS011;3539;47.982;12.238;2023-05-07T09:47:49;3.30;;;2.00;;
6997;SDS011;3539;47.982;12.238;2023-05-07T09:50:20;9.50;;;1.80;;
6997;SDS011;3539;47.982;12.238;2023-05-07T09:52:48;2.23;;;1.83;;
6997;SDS011;3539;47.982;12.238;2023-05-07T09:55:15;2.70;;;1.87;;
6997;SDS011;3539;47.982;12.238;2023-05-07T09:57:43;2.57;;;1.87;;
6997;SDS011;3539;47.982;12.238;2023-05-07T10:00:13;1.83;;;1.70;;
6997;SDS011;3539;47.982;12.238;2023-05-07T10:02:41;2.93;;;1.70;;
6997;SDS011;3539;47.982;12.238;2023-05-07T10:05:13;2.37;;;1.80;;
6997;SDS011;3539;47.982;12.238;2023-05-07T10:07:40;1.90;;;1.70;;
6997;SDS011;3539;47.982;12.238;2023-05-07T10:10:08;2.00;;;1.57;;
6997;SDS011;3539;47.982;12.238;2023-05-07T10:12:35;2.53;;;1.90;;
6997;SDS011;3539;47.982;12.238;2023-05-07T10:15:05;2.07;;;1.70;;
6997;SDS011;3539;47.982;12.238;2023-05-07T10:17:35;2.03;;;1.83;;
6997;SDS011;3539;47.982;12.238;2023-05-07T10:20:02;2.47;;;1.70;;
6997;SDS011;3539;47.982;12.238;2023-05-07T10:22:30;2.87;;;1.80;;
6997;SDS011;3539;47.982;12.238;2023-05-07T10:25:01;2.27;;;1.90;;
6997;SDS011;3539;47.982;12.238;2023-05-07T10:27:29;2.60;;;1.80;;
6997;SDS011;3539;47.982;12.238;2023-05-07T10:30:00;3.43;;;1.90;;
6997;SDS011;3539;47.982;12.238;2023-05-07T10:32:35;1.83;;;1.73;;
6997;SDS011;3539;47.982;12.238;2023-05-07T10:35:06;2.43;;;1.77;;
6997;SDS011;3539;47.982;12.238;2023-05-07T10:37:36;1.60;;;1.50;;
6997;SDS011;3539;47.982;12.238;2023-05-07T10:40:03;1.97;;;1.83;;
6997;SDS011;3539;47.982;12.238;2023-05-07T10:42:32;3.13;;;1.50;;
6997;SDS011;3539;47.982;12.238;2023-05-07T10:44:59;1.80;;;1.70;;
6997;SDS011;3539;47.982;12.238;2023-05-07T10:47:47;2.73;;;1.60;;
6997;SDS011;3539;47.982;12.238;2023-05-07T10:50:32;2.07;;;1.60;;
6997;SDS011;3539;47.982;12.238;2023-05-07T10:55:49;1.60;;;1.50;;
6997;SDS011;3539;47.982;12.238;2023-05-07T10:58:22;2.97;;;1.60;;
6997;SDS011;3539;47.982;12.238;2023-05-07T11:00:50;2.30;;;1.60;;
6997;SDS011;3539;47.982;12.238;2023-05-07T11:03:18;2.43;;;1.70;;
6997;SDS011;3539;47.982;12.238;2023-05-07T11:05:47;1.90;;;1.60;;
6997;SDS011;3539;47.982;12.238;2023-05-07T11:11:19;1.97;;;1.60;;
6997;SDS011;3539;47.982;12.238;2023-05-07T11:13:47;1.70;;;1.40;;
6997;SDS011;3539;47.982;12.238;2023-05-07T11:16:18;1.93;;;1.73;;
6997;SDS011;3539;47.982;12.238;2023-05-07T11:18:47;2.65;;;1.70;;
6997;SDS011;3539;47.982;12.238;2023-05-07T11:24:00;3.05;;;1.70;;
6997;SDS011;3539;47.982;12.238;2023-05-07T11:26:28;2.08;;;1.80;;
6997;SDS011;3539;47.982;12.238;2023-05-07T11:28:56;2.43;;;2.03;;
6997;SDS011;3539;47.982;12.238;2023-05-07T11:31:25;1.80;;;1.60;;
6997;SDS011;3539;47.982;12.238;2023-05-07T11:33:56;2.70;;;2.00;;
6997;SDS011;3539;47.982;12.238;2023-05-07T11:36:23;3.20;;;2.07;;
6997;SDS011;3539;47.982;12.238;2023-05-07T11:38:51;2.28;;;1.85;;
6997;SDS011;3539;47.982;12.238;2023-05-07T11:41:17;2.83;;;1.83;;
6997;SDS011;3539;47.982;12.238;2023-05-07T11:43:56;4.33;;;1.80;;
6997;SDS011;3539;47.982;12.238;2023-05-07T11:46:24;3.37;;;1.90;;
6997;SDS011;3539;47.982;12.238;2023-05-07T11:48:50;2.20;;;2.00;;
6997;SDS011;3539;47.982;12.238;2023-05-07T11:51:22;2.53;;;1.98;;
6997;SDS011;3539;47.982;12.238;2023-05-07T11:53:51;2.63;;;1.70;;
6997;SDS011;3539;47.982;12.238;2023-05-07T11:56:18;2.50;;;1.80;;
6997;SDS011;3539;47.982;12.238;2023-05-07T11:58:45;2.27;;;1.93;;
6997;SDS011;3539;47.982;12.238;2023-05-07T12:01:14;2.47;;;1.83;;
6997;SDS011;3539;47.982;12.238;2023-05-07T12:03:42;3.20;;;1.90;;
6997;SDS011;3539;47.982;12.238;2023-05-07T12:06:10;4.00;;;2.20;;
6997;SDS011;3539;47.982;12.238;2023-05-07T12:08:40;2.80;;;1.88;;
6997;SDS011;3539;47.982;12.238;2023-05-07T12:11:08;5.30;;;2.05;;
6997;SDS011;3539;47.982;12.238;2023-05-07T12:13:36;3.28;;;1.70;;
6997;SDS011;3539;47.982;12.238;2023-05-07T12:16:03;4.43;;;2.10;;
6997;SDS011;3539;47.982;12.238;2023-05-07T12:18:31;2.17;;;1.97;;
6997;SDS011;3539;47.982;12.238;2023-05-07T12:20:59;3.77;;;1.80;;
6997;SDS011;3539;47.982;12.238;2023-05-07T12:23:26;2.67;;;1.90;;
6997;SDS011;3539;47.982;12.238;2023-05-07T12:25:54;2.83;;;2.17;;
6997;SDS011;3539;47.982;12.238;2023-05-07T12:28:21;2.70;;;2.20;;
6997;SDS011;3539;47.982;12.238;2023-05-07T12:30:50;2.33;;;2.13;;
6997;SDS011;3539;47.982;12.238;2023-05-07T12:33:17;2.15;;;1.95;;
6997;SDS011;3539;47.982;12.238;2023-05-07T12:35:47;2.25;;;2.05;;
6997;SDS011;3539;47.982;12.238;2023-05-07T12:38:14;2.35;;;2.15;;
6997;SDS011;3539;47.982;12.238;2023-05-07T12:40:42;2.20;;;2.00;;
6997;SDS011;3539;47.982;12.238;2023-05-07T12:43:16;3.13;;;2.53;;
6997;SDS011;3539;47.982;12.238;2023-05-07T12:45:44;3.73;;;2.60;;
6997;SDS011;3539;47.982;12.238;2023-05-07T12:48:11;2.27;;;2.07;;
6997;SDS011;3539;47.982;12.238;2023-05-07T12:50:38;2.30;;;2.10;;
6997;SDS011;3539;47.982;12.238;2023-05-07T12:53:04;2.90;;;2.17;;
6997;SDS011;3539;47.982;12.238;2023-05-07T12:55:34;2.10;;;1.70;;
6997;SDS011;3539;47.982;12.238;2023-05-07T12:58:07;2.73;;;2.27;;
6997;SDS011;3539;47.982;12.238;2023-05-07T13:00:38;2.23;;;1.90;;
6997;SDS011;3539;47.982;12.238;2023-05-07T13:03:05;2.80;;;1.90;;
6997;SDS011;3539;47.982;12.238;2023-05-07T13:05:32;2.17;;;2.00;;
6997;SDS011;3539;47.982;12.238;2023-05-07T13:07:58;2.20;;;1.90;;
6997;SDS011;3539;47.982;12.238;2023-05-07T13:10:26;2.50;;;2.03;;
6997;SDS011;3539;47.982;12.238;2023-05-07T13:12:53;2.80;;;2.00;;
6997;SDS011;3539;47.982;12.238;2023-05-07T13:15:21;2.30;;;2.00;;
6997;SDS011;3539;47.982;12.238;2023-05-07T13:17:49;2.20;;;2.00;;
6997;SDS011;3539;47.982;12.238;2023-05-07T13:20:16;2.10;;;1.90;;
6997;SDS011;3539;47.982;12.238;2023-05-07T13:22:43;2.10;;;1.70;;
6997;SDS011;3539;47.982;12.238;2023-05-07T13:25:10;2.57;;;1.83;;
6997;SDS011;3539;47.982;12.238;2023-05-07T13:27:36;2.57;;;1.90;;
6997;SDS011;3539;47.982;12.238;2023-05-07T13:30:04;2.57;;;1.90;;
6997;SDS011;3539;47.982;12.238;2023-05-07T13:32:31;2.30;;;1.73;;
6997;SDS011;3539;47.982;12.238;2023-05-07T13:35:02;3.83;;;1.70;;
6997;SDS011;3539;47.982;12.238;2023-05-07T13:37:36;2.43;;;1.87;;
6997;SDS011;3539;47.982;12.238;2023-05-07T13:40:03;2.23;;;1.50;;
6997;SDS011;3539;47.982;12.238;2023-05-07T13:42:31;1.60;;;1.50;;
6997;SDS011;3539;47.982;12.238;2023-05-07T13:44:58;2.10;;;1.63;;
6997;SDS011;3539;47.982;12.238;2023-05-07T13:47:25;3.17;;;1.80;;
6997;SDS011;3539;47.982;12.238;2023-05-07T13:49:52;1.53;;;1.43;;
6997;SDS011;3539;47.982;12.238;2023-05-07T13:52:20;1.67;;;1.50;;
6997;SDS011;3539;47.982;12.238;2023-05-07T13:54:47;2.50;;;1.90;;
6997;SDS011;3539;47.982;12.238;2023-05-07T13:57:13;2.50;;;1.50;;
6997;SDS011;3539;47.982;12.238;2023-05-07T13:59:40;1.60;;;1.40;;
6997;SDS011;3539;47.982;12.238;2023-05-07T14:02:07;1.40;;;1.30;;
6997;SDS011;3539;47.982;12.238;2023-05-07T14:04:34;2.27;;;1.67;;
6997;SDS011;3539;47.982;12.238;2023-05-07T14:07:01;1.73;;;1.60;;
6997;SDS011;3539;47.982;12.238;2023-05-07T14:09:29;2.30;;;1.50;;
6997;SDS011;3539;47.982;12.238;2023-05-07T14:11:56;2.77;;;1.70;;
6997;SDS011;3539;47.982;12.238;2023-05-07T14:14:23;2.30;;;1.43;;
6997;SDS011;3539;47.982;12.238;2023-05-07T14:16:49;2.93;;;1.77;;
6997;SDS011;3539;47.982;12.238;2023-05-07T14:19:16;1.87;;;1.67;;
6997;SDS011;3539;47.982;12.238;2023-05-07T14:21:43;4.63;;;1.73;;
6997;SDS011;3539;47.982;12.238;2023-05-07T14:24:10;1.90;;;1.60;;
6997;SDS011;3539;47.982;12.238;2023-05-07T14:26:38;1.70;;;1.60;;
6997;SDS011;3539;47.982;12.238;2023-05-07T14:29:04;2.40;;;1.53;;
6997;SDS011;3539;47.982;12.238;2023-05-07T14:31:31;1.93;;;1.63;;
6997;SDS011;3539;47.982;12.238;2023-05-07T14:33:59;2.37;;;1.70;;
6997;SDS011;3539;47.982;12.238;2023-05-07T14:36:25;1.90;;;1.47;;
6997;SDS011;3539;47.982;12.238;2023-05-07T14:38:52;2.70;;;1.77;;
6997;SDS011;3539;47.982;12.238;2023-05-07T14:41:24;2.13;;;1.50;;
6997;SDS011;3539;47.982;12.238;2023-05-07T14:43:54;1.67;;;1.57;;
6997;SDS011;3539;47.982;12.238;2023-05-07T14:46:21;2.37;;;1.43;;
6997;SDS011;3539;47.982;12.238;2023-05-07T14:48:49;2.57;;;1.70;;
6997;SDS011;3539;47.982;12.238;2023-05-07T14:51:15;2.17;;;1.67;;
6997;SDS011;3539;47.982;12.238;2023-05-07T14:53:42;2.50;;;1.90;;
6997;SDS011;3539;47.982;12.238;2023-05-07T14:56:10;2.13;;;1.93;;
6997;SDS011;3539;47.982;12.238;2023-05-07T14:58:37;2.30;;;1.90;;
6997;SDS011;3539;47.982;12.238;2023-05-07T15:01:05;2.13;;;1.80;;
6997;SDS011;3539;47.982;12.238;2023-05-07T15:03:32;1.83;;;1.70;;
6997;SDS011;3539;47.982;12.238;2023-05-07T15:05:58;1.90;;;1.80;;
6997;SDS011;3539;47.982;12.238;2023-05-07T15:08:25;2.43;;;2.00;;
6997;SDS011;3539;47.982;12.238;2023-05-07T15:10:52;2.30;;;1.80;;